Aérodrome :
LOGIN :

S'inscrire | Disclaimer

   EN    FR    IT 

 










Légende :    VFR   VFR Marginal   IFR   IFR Intensif   IFR Très Intensif
Visi : 
Plafond : 
>= 8 km
>= 3000ft
5 à 8 km
1000 à 3000 ft
1500m à 5 km
500 à 1000 ft
800 à 1500m
200 à 500 ft
< 800m
< 200 ft
Symboles :   Orages  Brouillard  Fortes neiges  Fortes précipitations  Vent > 20 kt
SIGMETs :   Divers  Orages  Givrage  Turbulence  Onde Orograph.  Cendres Volcan.







- Altitude de l'aérodrome : 755 ft
- Code IATA : DRS


EDDC - Dresden Klotzsche

DERNIER METAR :
  • 161450Z 32005KT 290V360 5000 -RA BR BKN007 BKN011 14/13 Q1017 TEMPO 3000 -RADZ

METARs EXPIRÉS :
  • 161420Z 33004KT 290V350 9999 -RA FEW014 OVC020 14/12 Q1017 TEMPO BKN014
  • 161350Z 34005KT 310V010 9999 -RA SCT016 BKN022 15/12 Q1017 TEMPO BKN014
  • 161320Z 32005KT 290V350 9999 SCT017 BKN020 15/11 Q1018 TEMPO BKN014
  • 161250Z 33004KT 290V350 9999 -RA BKN020 15/11 Q1018 TEMPO BKN014
  • 161220Z 30004KT 240V010 9999 BKN021 BKN037 16/11 Q1018 NOSIG

TAF TAF EDDC
Valide du 16 à 12h jusqu'au 17 à 12h UTC


161100Z 1612/1712 32004KT 9999 BKN035
TEMPO 1612/1619 BKN013
PROB30
TEMPO 1612/1618 3000 -RADZ BKN008
BECMG 1702/1704 26005KT
BECMG 1706/1708 29010KT
PROB40
TEMPO 1706/1708 BKN013
BECMG 1710/1712 30015G30KT
Pas de NOTAMs connus pour ce terrain.



MET'MAP, la Météo Aéronautique d'un coup d'oeil ! - Copyright ORBIFLY Décembre 2007 - Disclaimer

ORBIFLY MET'MAP TEAM :

Programmation & Développement : Alexandra Zaïnal
Conception & Développement : Baudouin d'Aumeries
Co-Programmation & Développement : Marc-Olivier Méhu
Soutien technique & logistique : Manuel Goepfert

Contact : metmap@orbifly.com




SOURCES & CREDITS :

   NOAA